sensor_id;sensor_type;location;lat;lon;timestamp;pressure;altitude;pressure_sealevel;temperature;humidity
85319;BME280;75722;49.004;12.120;2024-03-29T00:01:59;96613.69;;;2.53;100.00
85319;BME280;75722;49.004;12.120;2024-03-29T00:04:24;96614.25;;;2.48;100.00
85319;BME280;75722;49.004;12.120;2024-03-29T00:06:50;96618.63;;;2.41;100.00
85319;BME280;75722;49.004;12.120;2024-03-29T00:09:15;96614.47;;;2.38;100.00
85319;BME280;75722;49.004;12.120;2024-03-29T00:11:40;96600.59;;;2.35;100.00
85319;BME280;75722;49.004;12.120;2024-03-29T00:14:06;96599.91;;;2.41;100.00
85319;BME280;75722;49.004;12.120;2024-03-29T00:16:31;96597.41;;;2.39;100.00
85319;BME280;75722;49.004;12.120;2024-03-29T00:18:56;96598.25;;;2.31;100.00
85319;BME280;75722;49.004;12.120;2024-03-29T00:21:22;96591.09;;;2.32;100.00
85319;BME280;75722;49.004;12.120;2024-03-29T00:23:47;96596.69;;;2.54;100.00
85319;BME280;75722;49.004;12.120;2024-03-29T00:26:13;96595.09;;;2.36;100.00
85319;BME280;75722;49.004;12.120;2024-03-29T00:28:39;96589.22;;;2.41;100.00
85319;BME280;75722;49.004;12.120;2024-03-29T00:31:04;96584.72;;;2.33;100.00
85319;BME280;75722;49.004;12.120;2024-03-29T00:33:30;96589.69;;;2.44;100.00
85319;BME280;75722;49.004;12.120;2024-03-29T00:35:55;96583.66;;;2.51;100.00
85319;BME280;75722;49.004;12.120;2024-03-29T00:38:21;96581.25;;;2.64;100.00
85319;BME280;75722;49.004;12.120;2024-03-29T00:40:46;96579.72;;;2.70;100.00
85319;BME280;75722;49.004;12.120;2024-03-29T00:43:12;96587.56;;;2.72;100.00
85319;BME280;75722;49.004;12.120;2024-03-29T00:45:37;96595.28;;;2.66;100.00
85319;BME280;75722;49.004;12.120;2024-03-29T00:48:03;96597.88;;;3.06;100.00
85319;BME280;75722;49.004;12.120;2024-03-29T00:50:28;96595.97;;;2.92;100.00
85319;BME280;75722;49.004;12.120;2024-03-29T00:52:54;96581.63;;;2.85;100.00
85319;BME280;75722;49.004;12.120;2024-03-29T00:55:19;96579.41;;;2.65;100.00
85319;BME280;75722;49.004;12.120;2024-03-29T00:57:44;96576.63;;;2.81;100.00
85319;BME280;75722;49.004;12.120;2024-03-29T01:00:10;96570.53;;;2.96;100.00
85319;BME280;75722;49.004;12.120;2024-03-29T01:02:36;96585.03;;;3.02;100.00
85319;BME280;75722;49.004;12.120;2024-03-29T01:05:01;96586.16;;;2.84;100.00
85319;BME280;75722;49.004;12.120;2024-03-29T01:07:28;96564.59;;;2.86;100.00
85319;BME280;75722;49.004;12.120;2024-03-29T01:09:53;96557.00;;;2.74;100.00
85319;BME280;75722;49.004;12.120;2024-03-29T01:12:18;96549.72;;;3.06;100.00
85319;BME280;75722;49.004;12.120;2024-03-29T01:14:45;96545.56;;;2.80;100.00
85319;BME280;75722;49.004;12.120;2024-03-29T01:17:10;96541.84;;;2.90;100.00
85319;BME280;75722;49.004;12.120;2024-03-29T01:19:36;96539.41;;;2.80;100.00
85319;BME280;75722;49.004;12.120;2024-03-29T01:22:01;96544.84;;;2.63;100.00
85319;BME280;75722;49.004;12.120;2024-03-29T01:24:27;96547.00;;;2.68;100.00
85319;BME280;75722;49.004;12.120;2024-03-29T01:26:52;96530.47;;;2.64;100.00
85319;BME280;75722;49.004;12.120;2024-03-29T01:29:17;96512.38;;;2.43;100.00
85319;BME280;75722;49.004;12.120;2024-03-29T01:31:43;96511.25;;;2.37;100.00
85319;BME280;75722;49.004;12.120;2024-03-29T01:34:08;96523.28;;;2.33;100.00
85319;BME280;75722;49.004;12.120;2024-03-29T01:36:33;96513.78;;;2.30;100.00
85319;BME280;75722;49.004;12.120;2024-03-29T01:38:59;96503.81;;;2.24;100.00
85319;BME280;75722;49.004;12.120;2024-03-29T01:41:25;96516.38;;;2.15;100.00
85319;BME280;75722;49.004;12.120;2024-03-29T01:43:52;96525.56;;;2.44;100.00
85319;BME280;75722;49.004;12.120;2024-03-29T01:46:20;96521.56;;;2.17;100.00
85319;BME280;75722;49.004;12.120;2024-03-29T01:48:46;96528.25;;;2.13;100.00
85319;BME280;75722;49.004;12.120;2024-03-29T01:51:13;96540.94;;;2.11;100.00
85319;BME280;75722;49.004;12.120;2024-03-29T01:53:39;96534.41;;;2.13;100.00
85319;BME280;75722;49.004;12.120;2024-03-29T01:56:05;96539.31;;;2.33;100.00
85319;BME280;75722;49.004;12.120;2024-03-29T01:58:32;96546.63;;;2.08;100.00
85319;BME280;75722;49.004;12.120;2024-03-29T02:00:58;96538.22;;;2.19;100.00
85319;BME280;75722;49.004;12.120;2024-03-29T02:03:25;96525.75;;;2.11;100.00
85319;BME280;75722;49.004;12.120;2024-03-29T02:05:50;96513.94;;;2.05;100.00
85319;BME280;75722;49.004;12.120;2024-03-29T02:08:17;96515.19;;;2.18;100.00
85319;BME280;75722;49.004;12.120;2024-03-29T02:10:44;96519.25;;;2.37;100.00
85319;BME280;75722;49.004;12.120;2024-03-29T02:13:11;96542.25;;;2.15;100.00
85319;BME280;75722;49.004;12.120;2024-03-29T02:15:36;96546.75;;;2.14;100.00
85319;BME280;75722;49.004;12.120;2024-03-29T02:18:01;96536.94;;;2.47;100.00
85319;BME280;75722;49.004;12.120;2024-03-29T02:20:27;96537.16;;;2.37;100.00
85319;BME280;75722;49.004;12.120;2024-03-29T02:23:16;96520.53;;;2.18;100.00
85319;BME280;75722;49.004;12.120;2024-03-29T02:25:43;96520.25;;;2.13;100.00
85319;BME280;75722;49.004;12.120;2024-03-29T02:28:08;96512.22;;;2.13;100.00
85319;BME280;75722;49.004;12.120;2024-03-29T02:30:33;96506.69;;;2.46;100.00
85319;BME280;75722;49.004;12.120;2024-03-29T02:33:00;96506.34;;;2.49;100.00
85319;BME280;75722;49.004;12.120;2024-03-29T02:35:26;96511.34;;;2.52;100.00
85319;BME280;75722;49.004;12.120;2024-03-29T02:37:51;96504.28;;;2.60;100.00
85319;BME280;75722;49.004;12.120;2024-03-29T02:40:18;96491.38;;;2.63;100.00
85319;BME280;75722;49.004;12.120;2024-03-29T02:42:43;96489.84;;;2.69;100.00
85319;BME280;75722;49.004;12.120;2024-03-29T02:45:09;96496.25;;;2.60;100.00
85319;BME280;75722;49.004;12.120;2024-03-29T02:47:34;96503.81;;;2.79;100.00
85319;BME280;75722;49.004;12.120;2024-03-29T02:49:59;96503.03;;;2.94;100.00
85319;BME280;75722;49.004;12.120;2024-03-29T02:52:25;96496.94;;;3.00;100.00
85319;BME280;75722;49.004;12.120;2024-03-29T02:54:50;96483.69;;;2.68;100.00
85319;BME280;75722;49.004;12.120;2024-03-29T02:57:16;96483.84;;;2.90;100.00
85319;BME280;75722;49.004;12.120;2024-03-29T02:59:41;96475.25;;;2.80;100.00
85319;BME280;75722;49.004;12.120;2024-03-29T03:02:07;96479.09;;;2.77;100.00
85319;BME280;75722;49.004;12.120;2024-03-29T03:04:32;96483.00;;;2.90;100.00
85319;BME280;75722;49.004;12.120;2024-03-29T03:06:58;96493.88;;;2.65;100.00
85319;BME280;75722;49.004;12.120;2024-03-29T03:09:44;96497.22;;;2.67;100.00
85319;BME280;75722;49.004;12.120;2024-03-29T03:12:29;96481.88;;;2.61;100.00
85319;BME280;75722;49.004;12.120;2024-03-29T03:14:55;96490.69;;;2.69;100.00
85319;BME280;75722;49.004;12.120;2024-03-29T03:17:20;96495.31;;;2.52;100.00
85319;BME280;75722;49.004;12.120;2024-03-29T03:19:46;96493.13;;;2.79;100.00
85319;BME280;75722;49.004;12.120;2024-03-29T03:22:11;96499.06;;;2.66;100.00
85319;BME280;75722;49.004;12.120;2024-03-29T03:24:37;96486.53;;;2.67;100.00
85319;BME280;75722;49.004;12.120;2024-03-29T03:27:02;96474.88;;;2.60;100.00
85319;BME280;75722;49.004;12.120;2024-03-29T03:29:28;96480.75;;;2.78;100.00
85319;BME280;75722;49.004;12.120;2024-03-29T03:31:54;96491.84;;;2.90;100.00
85319;BME280;75722;49.004;12.120;2024-03-29T03:34:19;96482.94;;;2.75;100.00
85319;BME280;75722;49.004;12.120;2024-03-29T03:36:44;96500.41;;;2.62;100.00
85319;BME280;75722;49.004;12.120;2024-03-29T03:39:10;96518.34;;;2.53;100.00
85319;BME280;75722;49.004;12.120;2024-03-29T03:41:35;96508.34;;;2.47;100.00
85319;BME280;75722;49.004;12.120;2024-03-29T03:44:01;96494.47;;;2.52;100.00
85319;BME280;75722;49.004;12.120;2024-03-29T03:46:26;96480.09;;;2.53;100.00
85319;BME280;75722;49.004;12.120;2024-03-29T03:48:51;96476.78;;;2.51;100.00
85319;BME280;75722;49.004;12.120;2024-03-29T03:51:17;96475.53;;;2.62;100.00
85319;BME280;75722;49.004;12.120;2024-03-29T03:53:42;96488.50;;;2.41;100.00
85319;BME280;75722;49.004;12.120;2024-03-29T03:56:07;96493.97;;;2.25;100.00
85319;BME280;75722;49.004;12.120;2024-03-29T03:58:33;96505.13;;;2.28;100.00
85319;BME280;75722;49.004;12.120;2024-03-29T04:01:04;96509.22;;;2.08;100.00
85319;BME280;75722;49.004;12.120;2024-03-29T04:03:29;96501.16;;;2.24;100.00
85319;BME280;75722;49.004;12.120;2024-03-29T04:05:55;96496.94;;;1.98;100.00
85319;BME280;75722;49.004;12.120;2024-03-29T04:08:20;96498.66;;;2.23;100.00
85319;BME280;75722;49.004;12.120;2024-03-29T04:10:45;96494.72;;;2.02;100.00
85319;BME280;75722;49.004;12.120;2024-03-29T04:13:11;96498.94;;;1.96;100.00
85319;BME280;75722;49.004;12.120;2024-03-29T04:15:36;96494.06;;;2.08;100.00
85319;BME280;75722;49.004;12.120;2024-03-29T04:18:01;96486.13;;;2.23;100.00
85319;BME280;75722;49.004;12.120;2024-03-29T04:20:27;96481.09;;;2.28;100.00
85319;BME280;75722;49.004;12.120;2024-03-29T04:22:52;96482.47;;;2.24;100.00
85319;BME280;75722;49.004;12.120;2024-03-29T04:25:18;96479.97;;;2.14;100.00
85319;BME280;75722;49.004;12.120;2024-03-29T04:27:43;96480.66;;;2.16;100.00
85319;BME280;75722;49.004;12.120;2024-03-29T04:30:09;96482.91;;;1.96;100.00
85319;BME280;75722;49.004;12.120;2024-03-29T04:32:34;96470.75;;;2.25;100.00
85319;BME280;75722;49.004;12.120;2024-03-29T04:35:00;96464.16;;;2.13;100.00
85319;BME280;75722;49.004;12.120;2024-03-29T04:37:25;96481.78;;;2.22;100.00
85319;BME280;75722;49.004;12.120;2024-03-29T04:39:51;96475.44;;;2.23;100.00
85319;BME280;75722;49.004;12.120;2024-03-29T04:42:16;96476.38;;;2.07;100.00
85319;BME280;75722;49.004;12.120;2024-03-29T04:44:41;96472.41;;;2.26;100.00
85319;BME280;75722;49.004;12.120;2024-03-29T04:47:07;96477.81;;;2.41;100.00
85319;BME280;75722;49.004;12.120;2024-03-29T04:49:32;96463.38;;;2.27;100.00
85319;BME280;75722;49.004;12.120;2024-03-29T04:52:05;96463.66;;;2.41;100.00
85319;BME280;75722;49.004;12.120;2024-03-29T04:54:30;96454.50;;;2.35;100.00
85319;BME280;75722;49.004;12.120;2024-03-29T04:56:56;96447.31;;;2.36;100.00
85319;BME280;75722;49.004;12.120;2024-03-29T04:59:21;96442.63;;;2.38;100.00
85319;BME280;75722;49.004;12.120;2024-03-29T05:01:48;96446.84;;;2.32;100.00
85319;BME280;75722;49.004;12.120;2024-03-29T05:04:16;96454.91;;;2.47;100.00
85319;BME280;75722;49.004;12.120;2024-03-29T05:06:44;96482.09;;;2.27;100.00
85319;BME280;75722;49.004;12.120;2024-03-29T05:09:09;96463.72;;;2.33;100.00
85319;BME280;75722;49.004;12.120;2024-03-29T05:11:36;96467.41;;;2.23;100.00
85319;BME280;75722;49.004;12.120;2024-03-29T05:14:02;96472.00;;;2.38;100.00
85319;BME280;75722;49.004;12.120;2024-03-29T05:16:29;96475.44;;;2.23;100.00
85319;BME280;75722;49.004;12.120;2024-03-29T05:18:54;96472.28;;;2.51;100.00
85319;BME280;75722;49.004;12.120;2024-03-29T05:21:20;96456.19;;;2.60;100.00
85319;BME280;75722;49.004;12.120;2024-03-29T05:23:45;96467.03;;;2.58;100.00
85319;BME280;75722;49.004;12.120;2024-03-29T05:26:10;96465.09;;;3.14;100.00
85319;BME280;75722;49.004;12.120;2024-03-29T05:28:35;96465.03;;;3.82;100.00
85319;BME280;75722;49.004;12.120;2024-03-29T05:31:12;96461.00;;;4.23;100.00
85319;BME280;75722;49.004;12.120;2024-03-29T05:33:39;96457.03;;;4.78;100.00
85319;BME280;75722;49.004;12.120;2024-03-29T05:36:05;96457.06;;;5.35;100.00
85319;BME280;75722;49.004;12.120;2024-03-29T05:38:32;96458.53;;;6.09;100.00
85319;BME280;75722;49.004;12.120;2024-03-29T05:40:57;96456.25;;;6.88;100.00
85319;BME280;75722;49.004;12.120;2024-03-29T05:43:23;96469.94;;;7.34;100.00
85319;BME280;75722;49.004;12.120;2024-03-29T05:45:52;96469.28;;;8.32;100.00
85319;BME280;75722;49.004;12.120;2024-03-29T05:48:17;96457.00;;;10.71;52.04
85319;BME280;75722;49.004;12.120;2024-03-29T05:50:44;96460.25;;;12.76;46.87
85319;BME280;75722;49.004;12.120;2024-03-29T05:53:10;96459.81;;;14.22;41.91
85319;BME280;75722;49.004;12.120;2024-03-29T05:55:35;96470.81;;;9.24;52.08
85319;BME280;75722;49.004;12.120;2024-03-29T05:58:01;96484.38;;;6.79;60.36
85319;BME280;75722;49.004;12.120;2024-03-29T06:00:26;96480.09;;;5.51;66.23
85319;BME280;75722;49.004;12.120;2024-03-29T06:02:52;96467.94;;;4.98;73.87
85319;BME280;75722;49.004;12.120;2024-03-29T06:05:18;96456.22;;;4.84;100.00
85319;BME280;75722;49.004;12.120;2024-03-29T06:07:43;96457.63;;;5.02;100.00
85319;BME280;75722;49.004;12.120;2024-03-29T06:10:09;96448.69;;;4.95;80.54
85319;BME280;75722;49.004;12.120;2024-03-29T06:12:35;96448.41;;;5.11;74.86
85319;BME280;75722;49.004;12.120;2024-03-29T06:15:04;96447.41;;;5.41;70.76
85319;BME280;75722;49.004;12.120;2024-03-29T06:17:48;96451.78;;;5.20;75.48
85319;BME280;75722;49.004;12.120;2024-03-29T06:20:13;96450.72;;;5.14;77.11
85319;BME280;75722;49.004;12.120;2024-03-29T06:22:39;96455.72;;;5.53;72.13
85319;BME280;75722;49.004;12.120;2024-03-29T06:25:04;96458.31;;;6.93;62.39
85319;BME280;75722;49.004;12.120;2024-03-29T06:27:36;96473.81;;;6.71;62.67
85319;BME280;75722;49.004;12.120;2024-03-29T06:30:04;96462.28;;;7.11;60.75
85319;BME280;75722;49.004;12.120;2024-03-29T06:32:32;96446.41;;;12.08;48.80
85319;BME280;75722;49.004;12.120;2024-03-29T06:34:58;96455.75;;;14.24;43.71
85319;BME280;75722;49.004;12.120;2024-03-29T06:37:24;96447.94;;;13.89;43.35
85319;BME280;75722;49.004;12.120;2024-03-29T06:39:51;96455.69;;;17.39;37.63
85319;BME280;75722;49.004;12.120;2024-03-29T06:42:17;96483.88;;;14.08;41.65
85319;BME280;75722;49.004;12.120;2024-03-29T06:44:43;96470.09;;;15.80;38.65
85319;BME280;75722;49.004;12.120;2024-03-29T06:47:08;96467.88;;;11.73;46.33
85319;BME280;75722;49.004;12.120;2024-03-29T06:49:34;96462.47;;;11.73;47.94
85319;BME280;75722;49.004;12.120;2024-03-29T06:52:00;96482.28;;;10.95;48.19
85319;BME280;75722;49.004;12.120;2024-03-29T06:54:27;96462.16;;;8.51;55.12
85319;BME280;75722;49.004;12.120;2024-03-29T06:56:56;96465.41;;;8.67;54.84
85319;BME280;75722;49.004;12.120;2024-03-29T06:59:22;96465.06;;;7.90;57.25
85319;BME280;75722;49.004;12.120;2024-03-29T07:01:48;96464.72;;;7.53;58.94
85319;BME280;75722;49.004;12.120;2024-03-29T07:04:20;96487.91;;;6.79;60.78
85319;BME280;75722;49.004;12.120;2024-03-29T07:06:46;96471.34;;;6.76;61.28
85319;BME280;75722;49.004;12.120;2024-03-29T07:09:13;96469.53;;;7.17;61.22
85319;BME280;75722;49.004;12.120;2024-03-29T07:11:40;96485.25;;;7.00;59.98
85319;BME280;75722;49.004;12.120;2024-03-29T07:14:05;96492.69;;;6.98;60.41
85319;BME280;75722;49.004;12.120;2024-03-29T07:16:33;96501.75;;;6.70;61.69
85319;BME280;75722;49.004;12.120;2024-03-29T07:18:58;96492.38;;;6.52;62.88
85319;BME280;75722;49.004;12.120;2024-03-29T07:21:24;96498.81;;;6.51;62.90
85319;BME280;75722;49.004;12.120;2024-03-29T07:23:50;96510.84;;;6.62;62.18
85319;BME280;75722;49.004;12.120;2024-03-29T07:26:15;96507.47;;;6.39;66.98
85319;BME280;75722;49.004;12.120;2024-03-29T07:28:41;96479.44;;;6.20;67.20
85319;BME280;75722;49.004;12.120;2024-03-29T07:31:07;96487.97;;;6.24;66.48
85319;BME280;75722;49.004;12.120;2024-03-29T07:33:33;96496.03;;;6.24;66.69
85319;BME280;75722;49.004;12.120;2024-03-29T07:35:59;96479.03;;;6.16;67.01
85319;BME280;75722;49.004;12.120;2024-03-29T07:38:24;96474.13;;;6.27;65.08
85319;BME280;75722;49.004;12.120;2024-03-29T07:40:50;96466.94;;;6.41;64.65
85319;BME280;75722;49.004;12.120;2024-03-29T07:43:17;96451.09;;;6.93;62.84
85319;BME280;75722;49.004;12.120;2024-03-29T07:45:43;96426.78;;;9.68;54.85
85319;BME280;75722;49.004;12.120;2024-03-29T07:48:14;96414.81;;;12.89;47.23
85319;BME280;75722;49.004;12.120;2024-03-29T07:50:41;96429.66;;;9.29;54.20
85319;BME280;75722;49.004;12.120;2024-03-29T07:53:07;96420.91;;;9.08;55.39
85319;BME280;75722;49.004;12.120;2024-03-29T07:55:32;96426.25;;;8.83;55.04
85319;BME280;75722;49.004;12.120;2024-03-29T07:57:58;96419.50;;;9.24;54.19
85319;BME280;75722;49.004;12.120;2024-03-29T08:00:25;96405.28;;;15.17;43.25
85319;BME280;75722;49.004;12.120;2024-03-29T08:02:50;96416.22;;;16.93;37.54
85319;BME280;75722;49.004;12.120;2024-03-29T08:05:17;96404.53;;;19.67;33.33
85319;BME280;75722;49.004;12.120;2024-03-29T08:07:43;96415.66;;;17.90;35.17
85319;BME280;75722;49.004;12.120;2024-03-29T08:10:09;96418.63;;;18.19;35.86
85319;BME280;75722;49.004;12.120;2024-03-29T08:12:34;96417.78;;;20.38;32.17
85319;BME280;75722;49.004;12.120;2024-03-29T08:15:02;96426.44;;;19.43;33.32
85319;BME280;75722;49.004;12.120;2024-03-29T08:17:28;96413.63;;;21.04;31.42
85319;BME280;75722;49.004;12.120;2024-03-29T08:19:53;96416.84;;;24.95;26.15
85319;BME280;75722;49.004;12.120;2024-03-29T08:22:19;96419.97;;;16.45;37.03
85319;BME280;75722;49.004;12.120;2024-03-29T08:24:44;96435.50;;;20.27;32.75
85319;BME280;75722;49.004;12.120;2024-03-29T08:27:10;96419.06;;;22.37;29.53
85319;BME280;75722;49.004;12.120;2024-03-29T08:29:37;96433.84;;;20.07;31.33
85319;BME280;75722;49.004;12.120;2024-03-29T08:32:03;96431.56;;;18.69;33.43
85319;BME280;75722;49.004;12.120;2024-03-29T08:34:28;96430.94;;;19.63;32.71
85319;BME280;75722;49.004;12.120;2024-03-29T08:37:00;96414.28;;;22.15;29.16
85319;BME280;75722;49.004;12.120;2024-03-29T08:39:25;96427.19;;;19.48;32.58
85319;BME280;75722;49.004;12.120;2024-03-29T08:41:51;96438.72;;;19.51;33.78
85319;BME280;75722;49.004;12.120;2024-03-29T08:44:16;96422.03;;;22.41;28.55
85319;BME280;75722;49.004;12.120;2024-03-29T08:46:41;96440.63;;;17.67;34.43
85319;BME280;75722;49.004;12.120;2024-03-29T08:49:07;96444.06;;;16.69;37.06
85319;BME280;75722;49.004;12.120;2024-03-29T08:51:32;96451.25;;;15.08;40.05
85319;BME280;75722;49.004;12.120;2024-03-29T08:53:58;96440.13;;;13.06;43.66
85319;BME280;75722;49.004;12.120;2024-03-29T08:56:23;96425.13;;;12.57;45.11
85319;BME280;75722;49.004;12.120;2024-03-29T08:58:49;96430.22;;;14.53;42.04
85319;BME280;75722;49.004;12.120;2024-03-29T09:01:15;96426.19;;;15.44;39.78
85319;BME280;75722;49.004;12.120;2024-03-29T09:03:40;96442.94;;;15.96;38.75
85319;BME280;75722;49.004;12.120;2024-03-29T09:06:06;96443.53;;;13.48;42.99
85319;BME280;75722;49.004;12.120;2024-03-29T09:08:31;96435.00;;;14.18;42.59
85319;BME280;75722;49.004;12.120;2024-03-29T09:10:57;96432.00;;;15.96;38.99
85319;BME280;75722;49.004;12.120;2024-03-29T09:13:23;96435.69;;;17.07;37.27
85319;BME280;75722;49.004;12.120;2024-03-29T09:15:48;96448.22;;;14.54;41.66
85319;BME280;75722;49.004;12.120;2024-03-29T09:18:14;96448.31;;;13.75;43.31
85319;BME280;75722;49.004;12.120;2024-03-29T09:20:58;96457.41;;;14.48;43.03
85319;BME280;75722;49.004;12.120;2024-03-29T09:23:25;96455.19;;;14.45;42.25
85319;BME280;75722;49.004;12.120;2024-03-29T09:25:52;96448.78;;;16.15;39.93
85319;BME280;75722;49.004;12.120;2024-03-29T09:28:18;96446.47;;;14.93;42.59
85319;BME280;75722;49.004;12.120;2024-03-29T09:30:43;96458.97;;;14.21;43.71
85319;BME280;75722;49.004;12.120;2024-03-29T09:33:08;96453.94;;;13.68;44.75
85319;BME280;75722;49.004;12.120;2024-03-29T09:35:36;96448.19;;;13.35;45.52
85319;BME280;75722;49.004;12.120;2024-03-29T09:38:02;96450.09;;;12.72;46.88
85319;BME280;75722;49.004;12.120;2024-03-29T09:40:28;96449.00;;;12.55;47.56
85319;BME280;75722;49.004;12.120;2024-03-29T09:42:56;96437.94;;;12.74;47.09
85319;BME280;75722;49.004;12.120;2024-03-29T09:45:36;96435.13;;;13.15;45.93
85319;BME280;75722;49.004;12.120;2024-03-29T09:48:07;96416.81;;;13.45;45.31
85319;BME280;75722;49.004;12.120;2024-03-29T09:50:36;96418.72;;;13.27;45.41
85319;BME280;75722;49.004;12.120;2024-03-29T09:53:04;96422.63;;;12.68;46.72
85319;BME280;75722;49.004;12.120;2024-03-29T09:55:30;96411.53;;;12.69;46.91
85319;BME280;75722;49.004;12.120;2024-03-29T09:57:57;96409.34;;;13.01;46.78
85319;BME280;75722;49.004;12.120;2024-03-29T10:00:23;96403.25;;;13.11;46.62
85319;BME280;75722;49.004;12.120;2024-03-29T10:02:50;96396.56;;;12.26;47.50
85319;BME280;75722;49.004;12.120;2024-03-29T10:05:18;96394.56;;;12.62;47.30
85319;BME280;75722;49.004;12.120;2024-03-29T10:07:46;96397.69;;;12.42;47.63
85319;BME280;75722;49.004;12.120;2024-03-29T10:10:11;96395.72;;;12.37;47.86
85319;BME280;75722;49.004;12.120;2024-03-29T10:12:37;96400.31;;;12.66;46.92
85319;BME280;75722;49.004;12.120;2024-03-29T10:15:03;96398.06;;;12.63;46.97
85319;BME280;75722;49.004;12.120;2024-03-29T10:17:44;96396.06;;;13.04;46.62
85319;BME280;75722;49.004;12.120;2024-03-29T10:20:10;96412.72;;;13.42;45.69
85319;BME280;75722;49.004;12.120;2024-03-29T10:22:40;96397.97;;;14.67;43.95
85319;BME280;75722;49.004;12.120;2024-03-29T10:25:06;96383.78;;;14.93;42.59
85319;BME280;75722;49.004;12.120;2024-03-29T10:27:31;96392.34;;;16.36;40.32
85319;BME280;75722;49.004;12.120;2024-03-29T10:29:57;96386.63;;;17.99;37.92
85319;BME280;75722;49.004;12.120;2024-03-29T10:32:22;96398.53;;;18.40;37.12
85319;BME280;75722;49.004;12.120;2024-03-29T10:34:50;96411.06;;;17.69;36.59
85319;BME280;75722;49.004;12.120;2024-03-29T10:37:17;96409.41;;;17.68;37.41
85319;BME280;75722;49.004;12.120;2024-03-29T10:39:50;96404.88;;;19.60;35.21
85319;BME280;75722;49.004;12.120;2024-03-29T10:42:15;96398.91;;;19.18;35.25
85319;BME280;75722;49.004;12.120;2024-03-29T10:44:41;96397.78;;;23.40;29.83
85319;BME280;75722;49.004;12.120;2024-03-29T10:47:09;96402.47;;;26.20;25.87
85319;BME280;75722;49.004;12.120;2024-03-29T10:49:38;96407.16;;;26.37;25.37
85319;BME280;75722;49.004;12.120;2024-03-29T10:52:06;96411.66;;;28.25;23.92
85319;BME280;75722;49.004;12.120;2024-03-29T10:54:34;96411.94;;;30.42;22.06
85319;BME280;75722;49.004;12.120;2024-03-29T10:57:05;96413.88;;;29.36;22.68
85319;BME280;75722;49.004;12.120;2024-03-29T10:59:35;96402.69;;;29.48;22.90
85319;BME280;75722;49.004;12.120;2024-03-29T11:02:12;96401.97;;;24.73;26.94
85319;BME280;75722;49.004;12.120;2024-03-29T11:04:39;96396.38;;;27.73;24.40
85319;BME280;75722;49.004;12.120;2024-03-29T11:07:08;96385.81;;;26.59;24.46
85319;BME280;75722;49.004;12.120;2024-03-29T11:09:39;96381.84;;;28.26;23.37
85319;BME280;75722;49.004;12.120;2024-03-29T11:12:05;96379.94;;;31.47;20.24
85319;BME280;75722;49.004;12.120;2024-03-29T11:14:42;96368.34;;;27.10;24.86
85319;BME280;75722;49.004;12.120;2024-03-29T11:17:10;96383.28;;;25.41;26.64
85319;BME280;75722;49.004;12.120;2024-03-29T11:19:38;96385.25;;;32.96;20.43
85319;BME280;75722;49.004;12.120;2024-03-29T11:22:04;96394.91;;;30.15;21.78
85319;BME280;75722;49.004;12.120;2024-03-29T11:24:31;96392.81;;;34.29;18.76
85319;BME280;75722;49.004;12.120;2024-03-29T11:26:57;96399.09;;;33.77;18.56
85319;BME280;75722;49.004;12.120;2024-03-29T11:29:23;96403.03;;;36.67;16.96
85319;BME280;75722;49.004;12.120;2024-03-29T11:31:58;96392.44;;;39.42;15.08
85319;BME280;75722;49.004;12.120;2024-03-29T11:34:24;96391.72;;;38.99;15.13
85319;BME280;75722;49.004;12.120;2024-03-29T11:36:50;96393.47;;;38.40;15.38
85319;BME280;75722;49.004;12.120;2024-03-29T11:39:22;96386.63;;;37.77;15.54
85319;BME280;75722;49.004;12.120;2024-03-29T11:41:49;96383.47;;;33.42;18.40
85319;BME280;75722;49.004;12.120;2024-03-29T11:44:15;96376.38;;;35.69;17.65
85319;BME280;75722;49.004;12.120;2024-03-29T11:46:41;96364.00;;;32.64;19.15
85319;BME280;75722;49.004;12.120;2024-03-29T11:49:09;96355.53;;;33.19;18.86
85319;BME280;75722;49.004;12.120;2024-03-29T11:51:35;96338.59;;;32.26;20.52
85319;BME280;75722;49.004;12.120;2024-03-29T11:54:01;96337.66;;;32.69;19.97
85319;BME280;75722;49.004;12.120;2024-03-29T11:56:27;96327.50;;;31.87;20.36
85319;BME280;75722;49.004;12.120;2024-03-29T11:58:53;96318.78;;;28.55;23.82
85319;BME280;75722;49.004;12.120;2024-03-29T12:01:20;96312.53;;;27.37;24.93
85319;BME280;75722;49.004;12.120;2024-03-29T12:03:45;96311.56;;;26.35;26.30
85319;BME280;75722;49.004;12.120;2024-03-29T12:06:12;96311.16;;;24.84;27.68
85319;BME280;75722;49.004;12.120;2024-03-29T12:08:39;96305.44;;;23.87;29.65
85319;BME280;75722;49.004;12.120;2024-03-29T12:11:05;96290.44;;;24.46;28.69
85319;BME280;75722;49.004;12.120;2024-03-29T12:13:31;96298.47;;;23.57;29.58
85319;BME280;75722;49.004;12.120;2024-03-29T12:15:57;96280.25;;;25.56;27.79
85319;BME280;75722;49.004;12.120;2024-03-29T12:18:24;96290.91;;;23.72;29.49
85319;BME280;75722;49.004;12.120;2024-03-29T12:20:51;96289.75;;;21.71;31.86
85319;BME280;75722;49.004;12.120;2024-03-29T12:23:21;96298.44;;;24.56;28.53
85319;BME280;75722;49.004;12.120;2024-03-29T12:25:49;96296.97;;;24.50;27.95
85319;BME280;75722;49.004;12.120;2024-03-29T12:28:15;96294.19;;;24.24;28.67
85319;BME280;75722;49.004;12.120;2024-03-29T12:30:42;96287.03;;;24.49;28.13
85319;BME280;75722;49.004;12.120;2024-03-29T12:33:12;96289.94;;;25.32;28.11
85319;BME280;75722;49.004;12.120;2024-03-29T12:35:44;96295.38;;;23.27;29.59
85319;BME280;75722;49.004;12.120;2024-03-29T12:38:11;96301.38;;;20.68;32.66
85319;BME280;75722;49.004;12.120;2024-03-29T12:40:37;96287.28;;;22.11;31.59
85319;BME280;75722;49.004;12.120;2024-03-29T12:43:05;96282.38;;;21.38;32.63
85319;BME280;75722;49.004;12.120;2024-03-29T12:45:33;96270.41;;;22.27;33.07
85319;BME280;75722;49.004;12.120;2024-03-29T12:47:59;96262.09;;;20.81;34.07